Time,TemperatureF,DewpointF,PressureIn,WindDirection,WindDirectionDegrees,WindSpeedMPH,WindSpeedGustMPH,Humidity,HourlyPrecipIn,Conditions,Clouds,dailyrainin,SoftwareType,DateUTC
2013-06-25 00:02:00,72.0,69.2,30.05,SW,219,0.0,1.0,91,0.00,,,0.00,Wunderground v.1.15,2013-06-25 04:02:00,
2013-06-25 00:03:00,72.0,69.2,30.05,SW,219,1.0,1.0,91,0.00,,,0.00,Wunderground v.1.15,2013-06-25 04:03:00,
2013-06-25 00:04:00,72.0,69.2,30.05,SW,219,0.0,1.0,91,0.00,,,0.00,Wunderground v.1.15,2013-06-25 04:04:00,
2013-06-25 00:05:00,71.9,69.1,30.04,SW,219,0.0,1.0,91,0.00,,,0.00,Wunderground v.1.15,2013-06-25 04:05:00,
2013-06-25 00:09:00,71.9,69.1,30.05,SW,219,0.0,1.0,91,0.00,,,0.00,Wunderground v.1.15,2013-06-25 04:09:00,
2013-06-25 00:15:00,71.9,69.4,30.05,SW,219,0.0,1.0,92,0.00,,,0.00,Wunderground v.1.15,2013-06-25 04:15:00,
2013-06-25 00:21:00,71.8,69.3,30.04,SW,219,0.0,0.0,92,0.00,,,0.00,Wunderground v.1.15,2013-06-25 04:21:00,
2013-06-25 00:27:00,71.7,69.3,30.05,SW,219,0.0,0.0,92,0.00,,,0.00,Wunderground v.1.15,2013-06-25 04:27:00,
2013-06-25 00:32:00,71.7,69.6,30.04,SW,219,0.0,0.0,93,0.00,,,0.00,Wunderground v.1.15,2013-06-25 04:32:00,
2013-06-25 00:38:00,71.6,69.5,30.04,SW,219,0.0,0.0,93,0.00,,,0.00,Wunderground v.1.15,2013-06-25 04:38:00,
2013-06-25 00:43:00,71.4,69.3,30.04,SW,219,0.0,0.0,93,0.00,,,0.00,Wunderground v.1.15,2013-06-25 04:43:00,
2013-06-25 00:48:00,71.2,69.1,30.04,SW,219,0.0,0.0,93,0.00,,,0.00,Wunderground v.1.15,2013-06-25 04:48:00,
2013-06-25 00:53:00,71.0,69.2,30.04,SW,219,0.0,0.0,94,0.00,,,0.00,Wunderground v.1.15,2013-06-25 04:53:00,
2013-06-25 00:59:00,71.0,69.2,30.05,SW,219,0.0,0.0,94,0.00,,,0.00,Wunderground v.1.15,2013-06-25 04:59:00,
2013-06-25 01:04:00,70.9,69.1,30.05,SW,219,1.0,1.0,94,0.00,,,0.00,Wunderground v.1.15,2013-06-25 05:04:00,
2013-06-25 01:10:00,70.9,69.1,30.05,SW,219,0.0,0.0,94,0.00,,,0.00,Wunderground v.1.15,2013-06-25 05:10:00,
2013-06-25 01:15:00,70.8,69.0,30.05,SW,219,1.0,1.0,94,0.00,,,0.00,Wunderground v.1.15,2013-06-25 05:15:00,
2013-06-25 01:20:00,70.7,68.9,30.05,SW,219,0.0,0.0,94,0.00,,,0.00,Wunderground v.1.15,2013-06-25 05:20:00,
2013-06-25 01:27:00,70.4,68.9,30.05,SW,219,0.0,1.0,95,0.00,,,0.00,Wunderground v.1.15,2013-06-25 05:27:00,
2013-06-25 01:32:00,70.5,69.0,30.04,SW,217,1.0,3.0,95,0.00,,,0.00,Wunderground v.1.15,2013-06-25 05:32:00,
2013-06-25 01:37:00,70.7,69.2,30.04,SW,217,1.0,3.0,95,0.00,,,0.00,Wunderground v.1.15,2013-06-25 05:37:00,
2013-06-25 01:43:00,70.8,69.3,30.04,SW,217,0.0,0.0,95,0.00,,,0.00,Wunderground v.1.15,2013-06-25 05:43:00,
2013-06-25 01:49:00,70.7,69.2,30.04,SW,217,0.0,0.0,95,0.00,,,0.00,Wunderground v.1.15,2013-06-25 05:49:00,
2013-06-25 01:55:00,70.6,69.1,30.04,SW,217,0.0,0.0,95,0.00,,,0.00,Wunderground v.1.15,2013-06-25 05:55:00,
2013-06-25 02:00:00,70.5,69.0,30.04,SW,217,2.0,2.0,95,0.00,,,0.00,Wunderground v.1.15,2013-06-25 06:00:00,
2013-06-25 02:05:00,70.6,69.1,30.04,SW,217,1.0,3.0,95,0.00,,,0.00,Wunderground v.1.15,2013-06-25 06:05:00,
2013-06-25 02:10:00,70.6,69.1,30.04,SW,217,1.0,1.0,95,0.00,,,0.00,Wunderground v.1.15,2013-06-25 06:10:00,
2013-06-25 02:15:00,70.6,69.1,30.04,SW,234,2.0,4.0,95,0.00,,,0.00,Wunderground v.1.15,2013-06-25 06:15:00,
2013-06-25 02:20:00,70.6,69.1,30.04,SSW,209,2.0,3.0,95,0.00,,,0.00,Wunderground v.1.15,2013-06-25 06:20:00,
2013-06-25 02:25:00,70.8,69.3,30.03,SSW,200,2.0,4.0,95,0.00,,,0.00,Wunderground v.1.15,2013-06-25 06:25:00,
2013-06-25 02:30:00,70.7,68.9,30.04,SSW,193,1.0,5.0,94,0.00,,,0.00,Wunderground v.1.15,2013-06-25 06:30:00,
2013-06-25 02:35:00,70.8,69.3,30.03,SSW,206,0.0,5.0,95,0.00,,,0.00,Wunderground v.1.15,2013-06-25 06:35:00,
2013-06-25 02:40:00,70.9,69.1,30.03,South,191,0.0,1.0,94,0.00,,,0.00,Wunderground v.1.15,2013-06-25 06:40:00,
2013-06-25 02:45:00,70.9,69.1,30.03,SW,236,0.0,2.0,94,0.00,,,0.00,Wunderground v.1.15,2013-06-25 06:45:00,
2013-06-25 02:50:00,70.9,69.1,30.03,SSW,200,2.0,2.0,94,0.00,,,0.00,Wunderground v.1.15,2013-06-25 06:50:00,
2013-06-25 02:55:00,70.8,69.0,30.03,SSW,209,1.0,4.0,94,0.00,,,0.00,Wunderground v.1.15,2013-06-25 06:55:00,
2013-06-25 03:00:00,70.6,68.8,30.02,SSW,209,1.0,1.0,94,0.00,,,0.00,Wunderground v.1.15,2013-06-25 07:00:00,
2013-06-25 03:05:00,70.5,68.7,30.02,SSW,209,0.0,1.0,94,0.00,,,0.00,Wunderground v.1.15,2013-06-25 07:05:00,
2013-06-25 03:10:00,70.6,68.8,30.02,SW,217,1.0,2.0,94,0.00,,,0.00,Wunderground v.1.15,2013-06-25 07:10:00,
2013-06-25 03:15:00,70.7,68.9,30.02,South,175,1.0,4.0,94,0.00,,,0.00,Wunderground v.1.15,2013-06-25 07:15:00,
2013-06-25 03:20:00,70.7,68.9,30.02,SSW,199,0.0,1.0,94,0.00,,,0.00,Wunderground v.1.15,2013-06-25 07:20:00,
2013-06-25 03:25:00,70.7,68.9,30.02,SSW,199,0.0,1.0,94,0.00,,,0.00,Wunderground v.1.15,2013-06-25 07:25:00,
2013-06-25 03:30:00,70.7,68.9,30.02,SSW,199,0.0,1.0,94,0.00,,,0.00,Wunderground v.1.15,2013-06-25 07:30:00,
2013-06-25 03:35:00,70.7,68.9,30.02,SSW,199,0.0,1.0,94,0.00,,,0.00,Wunderground v.1.15,2013-06-25 07:35:00,
2013-06-25 03:40:00,70.6,68.8,30.02,SSW,199,0.0,1.0,94,0.00,,,0.00,Wunderground v.1.15,2013-06-25 07:40:00,
2013-06-25 03:46:00,70.7,68.9,30.02,SSW,199,0.0,3.0,94,0.00,,,0.00,Wunderground v.1.15,2013-06-25 07:46:00,
2013-06-25 03:51:00,70.6,68.8,30.02,SW,219,0.0,0.0,94,0.00,,,0.00,Wunderground v.1.15,2013-06-25 07:51:00,
2013-06-25 03:56:00,70.6,68.8,30.02,SW,218,1.0,1.0,94,0.00,,,0.00,Wunderground v.1.15,2013-06-25 07:56:00,
2013-06-25 04:01:00,70.6,68.8,30.02,SW,218,1.0,1.0,94,0.00,,,0.00,Wunderground v.1.15,2013-06-25 08:01:00,
2013-06-25 04:06:00,70.6,68.8,30.02,SW,219,1.0,1.0,94,0.00,,,0.00,Wunderground v.1.15,2013-06-25 08:06:00,
2013-06-25 04:11:00,70.6,68.8,30.02,SSW,211,0.0,1.0,94,0.00,,,0.00,Wunderground v.1.15,2013-06-25 08:11:00,
2013-06-25 04:16:00,70.5,68.7,30.02,SSW,211,0.0,1.0,94,0.00,,,0.00,Wunderground v.1.15,2013-06-25 08:16:00,
2013-06-25 04:21:00,70.6,68.8,30.01,SSW,211,1.0,1.0,94,0.00,,,0.00,Wunderground v.1.15,2013-06-25 08:21:00,
2013-06-25 04:26:00,70.6,69.1,30.01,SSW,211,0.0,1.0,95,0.00,,,0.00,Wunderground v.1.15,2013-06-25 08:26:00,
2013-06-25 04:31:00,70.6,68.8,30.01,SSW,211,0.0,1.0,94,0.00,,,0.00,Wunderground v.1.15,2013-06-25 08:31:00,
2013-06-25 04:36:00,70.6,68.8,30.01,SSW,211,0.0,1.0,94,0.00,,,0.00,Wunderground v.1.15,2013-06-25 08:36:00,
2013-06-25 04:41:00,70.5,68.7,30.01,SSW,211,0.0,2.0,94,0.00,,,0.00,Wunderground v.1.15,2013-06-25 08:41:00,
2013-06-25 04:46:00,70.6,68.8,30.01,SSW,211,0.0,2.0,94,0.00,,,0.00,Wunderground v.1.15,2013-06-25 08:46:00,
2013-06-25 04:51:00,70.6,68.8,30.01,SSW,211,0.0,2.0,94,0.00,,,0.00,Wunderground v.1.15,2013-06-25 08:51:00,
2013-06-25 04:56:00,70.6,68.8,30.01,SSW,211,1.0,2.0,94,0.00,,,0.00,Wunderground v.1.15,2013-06-25 08:56:00,
2013-06-25 05:01:00,70.4,68.6,30.01,SSW,211,0.0,0.0,94,0.00,,,0.00,Wunderground v.1.15,2013-06-25 09:01:00,
2013-06-25 05:06:00,70.2,68.7,30.01,SSW,211,0.0,1.0,95,0.00,,,0.00,Wunderground v.1.15,2013-06-25 09:06:00,
2013-06-25 05:11:00,70.2,68.7,30.01,SSW,211,0.0,0.0,95,0.00,,,0.00,Wunderground v.1.15,2013-06-25 09:11:00,
2013-06-25 05:16:00,70.1,68.6,30.01,SSW,211,0.0,1.0,95,0.00,,,0.00,Wunderground v.1.15,2013-06-25 09:16:00,
2013-06-25 05:21:00,69.9,68.4,30.02,SSW,211,0.0,0.0,95,0.00,,,0.00,Wunderground v.1.15,2013-06-25 09:21:00,
2013-06-25 05:26:00,70.0,68.5,30.01,SSW,211,0.0,0.0,95,0.00,,,0.00,Wunderground v.1.15,2013-06-25 09:26:00,
2013-06-25 05:31:00,70.0,68.5,30.02,SSW,211,0.0,0.0,95,0.00,,,0.00,Wunderground v.1.15,2013-06-25 09:31:00,
2013-06-25 05:36:00,69.9,68.4,30.02,SSW,211,0.0,0.0,95,0.00,,,0.00,Wunderground v.1.15,2013-06-25 09:36:00,
2013-06-25 05:41:00,69.8,68.3,30.02,SSW,211,0.0,1.0,95,0.00,,,0.00,Wunderground v.1.15,2013-06-25 09:41:00,
2013-06-25 05:46:00,69.7,68.2,30.02,SSW,211,0.0,1.0,95,0.00,,,0.00,Wunderground v.1.15,2013-06-25 09:46:00,
2013-06-25 05:51:00,69.5,68.3,30.02,SSW,211,0.0,0.0,96,0.00,,,0.00,Wunderground v.1.15,2013-06-25 09:51:00,
2013-06-25 05:56:00,69.5,68.3,30.02,SSW,211,0.0,0.0,96,0.00,,,0.00,Wunderground v.1.15,2013-06-25 09:56:00,
2013-06-25 06:01:00,69.5,68.3,30.02,SSW,211,0.0,0.0,96,0.00,,,0.00,Wunderground v.1.15,2013-06-25 10:01:00,
2013-06-25 06:06:00,69.3,68.1,30.01,SSW,211,0.0,0.0,96,0.00,,,0.00,Wunderground v.1.15,2013-06-25 10:06:00,
2013-06-25 06:11:00,69.4,68.2,30.01,SSW,211,0.0,0.0,96,0.00,,,0.00,Wunderground v.1.15,2013-06-25 10:11:00,
2013-06-25 06:16:00,69.4,68.2,30.02,SSW,211,0.0,1.0,96,0.00,,,0.00,Wunderground v.1.15,2013-06-25 10:16:00,
2013-06-25 06:21:00,69.4,68.2,30.02,SSW,211,0.0,1.0,96,0.00,,,0.00,Wunderground v.1.15,2013-06-25 10:21:00,
2013-06-25 06:26:00,69.5,68.3,30.02,SSW,211,0.0,1.0,96,0.00,,,0.00,Wunderground v.1.15,2013-06-25 10:26:00,
2013-06-25 06:31:00,69.5,68.3,30.02,SSW,211,0.0,0.0,96,0.00,,,0.00,Wunderground v.1.15,2013-06-25 10:31:00,
2013-06-25 06:36:00,69.5,68.3,30.01,SSW,211,0.0,0.0,96,0.00,,,0.00,Wunderground v.1.15,2013-06-25 10:36:00,
2013-06-25 06:41:00,69.7,68.5,30.02,SSW,211,0.0,1.0,96,0.00,,,0.00,Wunderground v.1.15,2013-06-25 10:41:00,
2013-06-25 06:46:00,69.9,68.7,30.01,SSW,211,0.0,1.0,96,0.00,,,0.00,Wunderground v.1.15,2013-06-25 10:46:00,
2013-06-25 06:51:00,70.2,69.0,30.01,SSW,211,0.0,1.0,96,0.00,,,0.00,Wunderground v.1.15,2013-06-25 10:51:00,
2013-06-25 06:56:00,70.2,69.0,30.01,SSW,211,0.0,2.0,96,0.00,,,0.00,Wunderground v.1.15,2013-06-25 10:56:00,
2013-06-25 07:01:00,70.3,69.1,30.01,SSW,211,0.0,0.0,96,0.00,,,0.00,Wunderground v.1.15,2013-06-25 11:01:00,
2013-06-25 07:06:00,70.6,69.4,30.01,SSW,211,1.0,1.0,96,0.00,,,0.00,Wunderground v.1.15,2013-06-25 11:06:00,
2013-06-25 07:11:00,71.2,70.0,30.02,SSW,211,1.0,2.0,96,0.00,,,0.00,Wunderground v.1.15,2013-06-25 11:11:00,
2013-06-25 07:16:00,71.8,70.3,30.02,SSW,205,2.0,4.0,95,0.00,,,0.00,Wunderground v.1.15,2013-06-25 11:16:00,
2013-06-25 07:22:00,72.6,71.1,30.02,SSW,205,0.0,3.0,95,0.00,,,0.00,Wunderground v.1.15,2013-06-25 11:22:00,
2013-06-25 07:27:00,72.7,70.9,30.02,SSW,203,1.0,3.0,94,0.00,,,0.00,Wunderground v.1.15,2013-06-25 11:27:00,
2013-06-25 07:32:00,73.0,70.5,30.02,SSW,202,0.0,1.0,92,0.00,,,0.00,Wunderground v.1.15,2013-06-25 11:32:00,
2013-06-25 07:37:00,73.7,71.2,30.03,SSW,202,0.0,2.0,92,0.00,,,0.00,Wunderground v.1.15,2013-06-25 11:37:00,
2013-06-25 07:42:00,74.2,71.4,30.03,SSW,202,2.0,2.0,91,0.00,,,0.00,Wunderground v.1.15,2013-06-25 11:42:00,
2013-06-25 07:47:00,74.7,71.6,30.03,SSW,202,1.0,4.0,90,0.00,,,0.00,Wunderground v.1.15,2013-06-25 11:47:00,
2013-06-25 07:52:00,75.0,71.9,30.03,SSW,207,3.0,3.0,90,0.00,,,0.00,Wunderground v.1.15,2013-06-25 11:52:00,
2013-06-25 07:57:00,75.5,71.7,30.03,SSW,204,2.0,4.0,88,0.00,,,0.00,Wunderground v.1.15,2013-06-25 11:57:00,
2013-06-25 08:02:00,75.4,71.3,30.03,SSW,204,0.0,2.0,87,0.00,,,0.00,Wunderground v.1.15,2013-06-25 12:02:00,
2013-06-25 08:07:00,75.5,71.4,30.03,SSW,204,0.0,2.0,87,0.00,,,0.00,Wunderground v.1.15,2013-06-25 12:07:00,
2013-06-25 08:12:00,75.9,72.1,30.03,SSW,204,1.0,2.0,88,0.00,,,0.00,Wunderground v.1.15,2013-06-25 12:12:00,
2013-06-25 08:17:00,76.5,72.0,30.03,SSW,204,2.0,3.0,86,0.00,,,0.00,Wunderground v.1.15,2013-06-25 12:17:00,
2013-06-25 08:22:00,77.2,72.7,30.03,South,188,2.0,5.0,86,0.00,,,0.00,Wunderground v.1.15,2013-06-25 12:22:00,
2013-06-25 08:27:00,77.4,72.5,30.03,SSW,195,0.0,5.0,85,0.00,,,0.00,Wunderground v.1.15,2013-06-25 12:27:00,
2013-06-25 08:32:00,77.6,72.7,30.03,SSW,195,0.0,2.0,85,0.00,,,0.00,Wunderground v.1.15,2013-06-25 12:32:00,
2013-06-25 08:37:00,77.7,72.8,30.04,SSW,193,1.0,3.0,85,0.00,,,0.00,Wunderground v.1.15,2013-06-25 12:37:00,
2013-06-25 08:42:00,78.0,73.1,30.04,SSW,194,0.0,2.0,85,0.00,,,0.00,Wunderground v.1.15,2013-06-25 12:42:00,
2013-06-25 08:47:00,78.4,72.1,30.04,SSW,197,3.0,4.0,81,0.00,,,0.00,Wunderground v.1.15,2013-06-25 12:47:00,
2013-06-25 08:52:00,78.9,72.9,30.03,SSW,210,1.0,4.0,82,0.00,,,0.00,Wunderground v.1.15,2013-06-25 12:52:00,
2013-06-25 08:57:00,79.6,73.6,30.04,SW,215,1.0,4.0,82,0.00,,,0.00,Wunderground v.1.15,2013-06-25 12:57:00,
2013-06-25 09:02:00,79.8,74.5,30.04,SSW,213,0.0,3.0,84,0.00,,,0.00,Wunderground v.1.15,2013-06-25 13:02:00,
2013-06-25 09:07:00,80.3,73.9,30.03,SSW,202,0.0,3.0,81,0.00,,,0.00,Wunderground v.1.15,2013-06-25 13:07:00,
2013-06-25 09:12:00,80.5,74.5,30.03,SSW,193,0.0,4.0,82,0.00,,,0.00,Wunderground v.1.15,2013-06-25 13:12:00,
2013-06-25 09:17:00,80.9,74.1,30.04,SW,215,3.0,4.0,80,0.00,,,0.00,Wunderground v.1.15,2013-06-25 13:17:00,
2013-06-25 09:22:00,81.8,75.4,30.04,WSW,250,0.0,3.0,81,0.00,,,0.00,Wunderground v.1.15,2013-06-25 13:22:00,
2013-06-25 09:27:00,81.6,72.9,30.04,WSW,256,2.0,3.0,75,0.00,,,0.00,Wunderground v.1.15,2013-06-25 13:27:00,
2013-06-25 09:33:00,81.6,72.9,30.04,West,264,3.0,3.0,75,0.00,,,0.00,Wunderground v.1.15,2013-06-25 13:33:00,
2013-06-25 09:38:00,82.2,74.3,30.04,West,269,2.0,3.0,77,0.00,,,0.00,Wunderground v.1.15,2013-06-25 13:38:00,
2013-06-25 09:43:00,81.7,73.8,30.03,West,272,1.0,2.0,77,0.00,,,0.00,Wunderground v.1.15,2013-06-25 13:43:00,
2013-06-25 09:48:00,82.7,75.9,30.03,West,272,1.0,2.0,80,0.00,,,0.00,Wunderground v.1.15,2013-06-25 13:48:00,
2013-06-25 09:53:00,83.5,74.7,30.03,West,272,1.0,3.0,75,0.00,,,0.00,Wunderground v.1.15,2013-06-25 13:53:00,
2013-06-25 09:58:00,83.6,74.0,30.03,SSW,202,0.0,6.0,73,0.00,,,0.00,Wunderground v.1.15,2013-06-25 13:58:00,
2013-06-25 10:03:00,83.5,73.1,30.03,SSW,192,1.0,4.0,71,0.00,,,0.00,Wunderground v.1.15,2013-06-25 14:03:00,
2013-06-25 10:08:00,83.6,74.0,30.03,WNW,299,4.0,6.0,73,0.00,,,0.00,Wunderground v.1.15,2013-06-25 14:08:00,
2013-06-25 10:13:00,83.9,73.5,30.03,West,279,3.0,4.0,71,0.00,,,0.00,Wunderground v.1.15,2013-06-25 14:13:00,
2013-06-25 10:18:00,84.2,74.2,30.03,WNW,288,5.0,5.0,72,0.00,,,0.00,Wunderground v.1.15,2013-06-25 14:18:00,
2013-06-25 10:23:00,84.5,73.6,30.03,NW,311,4.0,5.0,70,0.00,,,0.00,Wunderground v.1.15,2013-06-25 14:23:00,
2013-06-25 10:28:00,84.8,74.3,30.03,WNW,294,2.0,5.0,71,0.00,,,0.00,Wunderground v.1.15,2013-06-25 14:28:00,
2013-06-25 10:33:00,84.9,73.2,30.03,West,276,2.0,4.0,68,0.00,,,0.00,Wunderground v.1.15,2013-06-25 14:33:00,
2013-06-25 10:38:00,84.9,73.2,30.03,West,261,2.0,4.0,68,0.00,,,0.00,Wunderground v.1.15,2013-06-25 14:38:00,
2013-06-25 10:43:00,84.8,73.5,30.03,West,280,2.0,5.0,69,0.00,,,0.00,Wunderground v.1.15,2013-06-25 14:43:00,
2013-06-25 10:48:00,85.3,74.4,30.03,WNW,288,2.0,6.0,70,0.00,,,0.00,Wunderground v.1.15,2013-06-25 14:48:00,
2013-06-25 10:53:00,85.8,73.6,30.03,West,271,2.0,5.0,67,0.00,,,0.00,Wunderground v.1.15,2013-06-25 14:53:00,
2013-06-25 10:58:00,85.8,74.4,30.03,West,278,5.0,7.0,69,0.00,,,0.00,Wunderground v.1.15,2013-06-25 14:58:00,
2013-06-25 11:03:00,85.6,71.6,30.03,WNW,288,4.0,7.0,63,0.00,,,0.00,Wunderground v.1.15,2013-06-25 15:03:00,
2013-06-25 11:08:00,85.3,73.1,30.04,WNW,292,1.0,7.0,67,0.00,,,0.00,Wunderground v.1.15,2013-06-25 15:08:00,
2013-06-25 11:13:00,85.6,72.5,30.03,SSW,202,1.0,7.0,65,0.00,,,0.00,Wunderground v.1.15,2013-06-25 15:13:00,
2013-06-25 11:18:00,85.4,72.7,30.04,South,191,3.0,7.0,66,0.00,,,0.00,Wunderground v.1.15,2013-06-25 15:18:00,
2013-06-25 11:23:00,86.3,74.5,30.03,West,269,3.0,5.0,68,0.00,,,0.00,Wunderground v.1.15,2013-06-25 15:23:00,
2013-06-25 11:28:00,85.9,72.3,30.03,WSW,238,1.0,6.0,64,0.00,,,0.00,Wunderground v.1.15,2013-06-25 15:28:00,
2013-06-25 11:33:00,85.6,74.7,30.03,South,190,1.0,4.0,70,0.00,,,0.00,Wunderground v.1.15,2013-06-25 15:33:00,
2013-06-25 11:38:00,85.8,74.0,30.03,WNW,294,4.0,5.0,68,0.00,,,0.00,Wunderground v.1.15,2013-06-25 15:38:00,
2013-06-25 11:43:00,85.0,73.3,30.03,South,187,2.0,7.0,68,0.00,,,0.00,Wunderground v.1.15,2013-06-25 15:43:00,
2013-06-25 11:48:00,84.7,73.8,30.03,West,264,1.0,7.0,70,0.00,,,0.00,Wunderground v.1.15,2013-06-25 15:48:00,
2013-06-25 11:53:00,85.1,74.6,30.03,WNW,282,3.0,5.0,71,0.00,,,0.00,Wunderground v.1.15,2013-06-25 15:53:00,
2013-06-25 11:58:00,86.0,75.5,30.02,West,279,4.0,6.0,71,0.00,,,0.00,Wunderground v.1.15,2013-06-25 15:58:00,
2013-06-25 12:03:00,86.8,73.6,30.02,WNW,287,1.0,10.0,65,0.00,,,0.00,Wunderground v.1.15,2013-06-25 16:03:00,
2013-06-25 12:08:00,86.9,74.6,30.02,West,270,4.0,10.0,67,0.00,,,0.00,Wunderground v.1.15,2013-06-25 16:08:00,
2013-06-25 12:13:00,87.4,74.6,30.02,WNW,294,4.0,7.0,66,0.00,,,0.00,Wunderground v.1.15,2013-06-25 16:13:00,
2013-06-25 12:18:00,86.8,74.1,30.02,WNW,288,3.0,7.0,66,0.00,,,0.00,Wunderground v.1.15,2013-06-25 16:18:00,
2013-06-25 12:23:00,87.5,74.3,30.02,WNW,286,5.0,7.0,65,0.00,,,0.00,Wunderground v.1.15,2013-06-25 16:23:00,
2013-06-25 12:28:00,87.8,74.1,30.02,WNW,289,0.0,7.0,64,0.00,,,0.00,Wunderground v.1.15,2013-06-25 16:28:00,
2013-06-25 12:33:00,88.3,73.1,30.02,WNW,283,2.0,5.0,61,0.00,,,0.00,Wunderground v.1.15,2013-06-25 16:33:00,
2013-06-25 12:38:00,88.5,74.3,30.02,West,276,5.0,8.0,63,0.00,,,0.00,Wunderground v.1.15,2013-06-25 16:38:00,
2013-06-25 12:44:00,88.7,75.9,30.02,WNW,284,2.0,5.0,66,0.00,,,0.00,Wunderground v.1.15,2013-06-25 16:44:00,
2013-06-25 12:49:00,88.6,73.9,30.02,West,269,0.0,5.0,62,0.00,,,0.00,Wunderground v.1.15,2013-06-25 16:49:00,
2013-06-25 12:54:00,89.0,76.2,30.02,NW,309,3.0,6.0,66,0.00,,,0.00,Wunderground v.1.15,2013-06-25 16:54:00,
2013-06-25 12:59:00,87.7,74.0,30.01,WNW,287,1.0,6.0,64,0.00,,,0.00,Wunderground v.1.15,2013-06-25 16:59:00,
2013-06-25 13:04:00,88.1,73.0,30.01,SSW,203,5.0,5.0,61,0.00,,,0.00,Wunderground v.1.15,2013-06-25 17:04:00,
2013-06-25 13:09:00,87.8,72.7,30.01,West,279,2.0,6.0,61,0.00,,,0.00,Wunderground v.1.15,2013-06-25 17:09:00,
2013-06-25 13:14:00,88.5,73.8,30.01,South,171,7.0,8.0,62,0.00,,,0.00,Wunderground v.1.15,2013-06-25 17:14:00,
2013-06-25 13:19:00,88.7,72.5,30.01,SSW,207,6.0,8.0,59,0.00,,,0.00,Wunderground v.1.15,2013-06-25 17:19:00,
2013-06-25 13:24:00,88.7,73.5,30.01,South,180,1.0,5.0,61,0.00,,,0.00,Wunderground v.1.15,2013-06-25 17:24:00,
2013-06-25 13:29:00,88.7,73.0,30.01,South,184,4.0,5.0,60,0.00,,,0.00,Wunderground v.1.15,2013-06-25 17:29:00,
2013-06-25 13:34:00,89.4,75.1,30.00,West,267,1.0,4.0,63,0.00,,,0.00,Wunderground v.1.15,2013-06-25 17:34:00,
2013-06-25 13:39:00,89.7,74.0,30.00,West,278,0.0,5.0,60,0.00,,,0.00,Wunderground v.1.15,2013-06-25 17:39:00,
2013-06-25 13:44:00,89.6,72.3,30.00,South,179,6.0,7.0,57,0.00,,,0.00,Wunderground v.1.15,2013-06-25 17:44:00,
2013-06-25 13:49:00,89.5,70.1,30.00,South,179,2.0,8.0,53,0.00,,,0.00,Wunderground v.1.15,2013-06-25 17:49:00,
2013-06-25 13:54:00,89.4,72.7,29.99,WNW,302,1.0,5.0,58,0.00,,,0.00,Wunderground v.1.15,2013-06-25 17:54:00,
2013-06-25 13:59:00,90.1,71.8,29.99,WSW,241,1.0,5.0,55,0.00,,,0.00,Wunderground v.1.15,2013-06-25 17:59:00,
2013-06-25 14:04:00,90.3,74.0,29.99,West,273,2.0,5.0,59,0.00,,,0.00,Wunderground v.1.15,2013-06-25 18:04:00,
2013-06-25 14:09:00,90.2,75.4,29.99,West,273,2.0,5.0,62,0.00,,,0.00,Wunderground v.1.15,2013-06-25 18:09:00,
2013-06-25 14:14:00,89.9,73.7,29.99,South,185,2.0,6.0,59,0.00,,,0.00,Wunderground v.1.15,2013-06-25 18:14:00,
2013-06-25 14:19:00,89.3,72.6,29.98,WNW,284,5.0,7.0,58,0.00,,,0.00,Wunderground v.1.15,2013-06-25 18:19:00,
2013-06-25 14:24:00,89.8,72.0,29.98,WSW,242,0.0,6.0,56,0.00,,,0.00,Wunderground v.1.15,2013-06-25 18:24:00,
2013-06-25 14:29:00,90.3,73.5,29.98,WSW,256,2.0,6.0,58,0.00,,,0.00,Wunderground v.1.15,2013-06-25 18:29:00,
2013-06-25 14:34:00,90.3,71.4,29.98,West,268,1.0,4.0,54,0.00,,,0.00,Wunderground v.1.15,2013-06-25 18:34:00,
2013-06-25 14:39:00,89.0,70.7,29.98,West,265,2.0,4.0,55,0.00,,,0.00,Wunderground v.1.15,2013-06-25 18:39:00,
2013-06-25 14:44:00,89.3,73.1,29.97,SSE,151,3.0,5.0,59,0.00,,,0.00,Wunderground v.1.15,2013-06-25 18:44:00,
2013-06-25 14:49:00,89.5,72.8,29.97,West,278,2.0,5.0,58,0.00,,,0.00,Wunderground v.1.15,2013-06-25 18:49:00,
2013-06-25 14:54:00,88.5,72.8,29.97,West,278,1.0,2.0,60,0.00,,,0.00,Wunderground v.1.15,2013-06-25 18:54:00,
2013-06-25 14:59:00,88.9,71.7,29.97,West,274,1.0,4.0,57,0.00,,,0.00,Wunderground v.1.15,2013-06-25 18:59:00,
2013-06-25 15:04:00,88.1,73.4,29.97,WSW,254,2.0,6.0,62,0.00,,,0.00,Wunderground v.1.15,2013-06-25 19:04:00,
2013-06-25 15:09:00,87.4,72.3,29.97,SSW,211,0.0,6.0,61,0.00,,,0.00,Wunderground v.1.15,2013-06-25 19:09:00,
2013-06-25 15:14:00,87.1,73.9,29.97,SSW,203,0.0,4.0,65,0.00,,,0.00,Wunderground v.1.15,2013-06-25 19:14:00,
2013-06-25 15:19:00,88.4,72.7,29.97,South,177,3.0,5.0,60,0.00,,,0.00,Wunderground v.1.15,2013-06-25 19:19:00,
2013-06-25 15:24:00,88.1,73.0,29.97,WNW,297,0.0,5.0,61,0.00,,,0.00,Wunderground v.1.15,2013-06-25 19:24:00,
2013-06-25 15:29:00,87.5,72.4,29.97,West,261,4.0,7.0,61,0.00,,,0.00,Wunderground v.1.15,2013-06-25 19:29:00,
2013-06-25 15:34:00,89.2,72.5,29.97,WNW,286,2.0,10.0,58,0.00,,,0.00,Wunderground v.1.15,2013-06-25 19:34:00,
2013-06-25 15:39:00,89.3,72.1,29.97,SSW,206,1.0,10.0,57,0.00,,,0.00,Wunderground v.1.15,2013-06-25 19:39:00,
2013-06-25 15:44:00,90.0,75.2,29.97,SW,227,3.0,7.0,62,0.00,,,0.00,Wunderground v.1.15,2013-06-25 19:44:00,
2013-06-25 15:49:00,90.2,73.9,29.97,NNW,335,2.0,7.0,59,0.00,,,0.00,Wunderground v.1.15,2013-06-25 19:49:00,
2013-06-25 15:54:00,88.5,73.8,29.97,NNW,335,0.0,3.0,62,0.00,,,0.00,Wunderground v.1.15,2013-06-25 19:54:00,
2013-06-25 15:59:00,88.5,72.3,29.97,NW,306,3.0,6.0,59,0.00,,,0.00,Wunderground v.1.15,2013-06-25 19:59:00,
2013-06-25 16:04:00,89.2,74.5,29.97,WSW,251,1.0,4.0,62,0.00,,,0.00,Wunderground v.1.15,2013-06-25 20:04:00,
2013-06-25 16:09:00,88.7,73.0,29.96,SSW,208,2.0,4.0,60,0.00,,,0.00,Wunderground v.1.15,2013-06-25 20:09:00,
2013-06-25 16:14:00,88.7,73.0,29.96,WSW,250,2.0,6.0,60,0.00,,,0.00,Wunderground v.1.15,2013-06-25 20:14:00,
2013-06-25 16:19:00,88.8,71.6,29.96,WSW,241,1.0,6.0,57,0.00,,,0.00,Wunderground v.1.15,2013-06-25 20:19:00,
2013-06-25 16:24:00,88.8,73.1,29.96,South,177,2.0,4.0,60,0.00,,,0.00,Wunderground v.1.15,2013-06-25 20:24:00,
2013-06-25 16:29:00,89.2,74.5,29.95,SW,218,2.0,2.0,62,0.00,,,0.00,Wunderground v.1.15,2013-06-25 20:29:00,
2013-06-25 16:34:00,88.6,74.4,29.95,SSW,208,1.0,5.0,63,0.00,,,0.00,Wunderground v.1.15,2013-06-25 20:34:00,
2013-06-25 16:39:00,87.8,73.6,29.95,West,263,3.0,3.0,63,0.00,,,0.00,Wunderground v.1.15,2013-06-25 20:39:00,
2013-06-25 16:45:00,87.0,72.4,29.95,West,271,1.0,7.0,62,0.00,,,0.00,Wunderground v.1.15,2013-06-25 20:45:00,
2013-06-25 16:50:00,86.8,72.7,29.95,WSW,250,0.0,2.0,63,0.00,,,0.00,Wunderground v.1.15,2013-06-25 20:50:00,
2013-06-25 16:55:00,87.3,75.9,29.95,SSW,213,1.0,6.0,69,0.00,,,0.00,Wunderground v.1.15,2013-06-25 20:55:00,
2013-06-25 17:00:00,87.4,74.6,29.94,SW,224,3.0,3.0,66,0.00,,,0.00,Wunderground v.1.15,2013-06-25 21:00:00,
2013-06-25 17:05:00,87.8,76.8,29.94,SSW,193,1.0,4.0,70,0.00,,,0.00,Wunderground v.1.15,2013-06-25 21:05:00,
2013-06-25 17:10:00,88.7,73.5,29.94,South,173,1.0,3.0,61,0.00,,,0.00,Wunderground v.1.15,2013-06-25 21:10:00,
2013-06-25 17:15:00,88.7,74.5,29.93,ESE,114,1.0,5.0,63,0.00,,,0.00,Wunderground v.1.15,2013-06-25 21:15:00,
2013-06-25 17:20:00,88.8,74.1,29.93,SW,233,2.0,2.0,62,0.00,,,0.00,Wunderground v.1.15,2013-06-25 21:20:00,
2013-06-25 17:25:00,89.0,73.8,29.93,SW,229,1.0,7.0,61,0.00,,,0.00,Wunderground v.1.15,2013-06-25 21:25:00,
2013-06-25 17:30:00,88.9,74.7,29.93,SSW,204,5.0,5.0,63,0.00,,,0.00,Wunderground v.1.15,2013-06-25 21:30:00,
2013-06-25 17:35:00,88.7,74.0,29.92,SSW,207,3.0,8.0,62,0.00,,,0.00,Wunderground v.1.15,2013-06-25 21:35:00,
2013-06-25 17:40:00,88.6,74.4,29.92,WSW,242,3.0,3.0,63,0.00,,,0.00,Wunderground v.1.15,2013-06-25 21:40:00,
2013-06-25 17:45:00,88.4,73.2,29.92,SSW,203,3.0,7.0,61,0.00,,,0.00,Wunderground v.1.15,2013-06-25 21:45:00,
2013-06-25 17:50:00,88.1,73.4,29.92,SSW,196,6.0,6.0,62,0.00,,,0.00,Wunderground v.1.15,2013-06-25 21:50:00,
2013-06-25 17:55:00,88.0,73.3,29.92,SSW,203,2.0,8.0,62,0.00,,,0.00,Wunderground v.1.15,2013-06-25 21:55:00,
2013-06-25 18:00:00,88.1,73.4,29.92,NNW,348,1.0,2.0,62,0.00,,,0.00,Wunderground v.1.15,2013-06-25 22:00:00,
2013-06-25 18:05:00,88.1,73.9,29.91,SSW,200,4.0,5.0,63,0.00,,,0.00,Wunderground v.1.15,2013-06-25 22:05:00,
2013-06-25 18:10:00,87.9,73.7,29.91,South,185,2.0,2.0,63,0.00,,,0.00,Wunderground v.1.15,2013-06-25 22:10:00,
2013-06-25 18:15:00,87.7,73.5,29.91,WSW,237,0.0,5.0,63,0.00,,,0.00,Wunderground v.1.15,2013-06-25 22:15:00,
2013-06-25 18:20:00,87.5,72.9,29.91,South,185,2.0,7.0,62,0.00,,,0.00,Wunderground v.1.15,2013-06-25 22:20:00,
2013-06-25 18:25:00,87.2,73.1,29.91,South,184,3.0,7.0,63,0.00,,,0.00,Wunderground v.1.15,2013-06-25 22:25:00,
2013-06-25 18:30:00,86.9,72.8,29.91,West,268,1.0,5.0,63,0.00,,,0.00,Wunderground v.1.15,2013-06-25 22:30:00,
2013-06-25 18:35:00,86.7,73.1,29.91,SW,222,0.0,5.0,64,0.00,,,0.00,Wunderground v.1.15,2013-06-25 22:35:00,
2013-06-25 18:40:00,86.7,73.1,29.91,SE,146,4.0,7.0,64,0.00,,,0.00,Wunderground v.1.15,2013-06-25 22:40:00,
2013-06-25 18:45:00,86.6,73.0,29.91,SW,228,0.0,7.0,64,0.00,,,0.00,Wunderground v.1.15,2013-06-25 22:45:00,
2013-06-25 18:50:00,86.5,72.4,29.90,SSW,200,3.0,5.0,63,0.00,,,0.00,Wunderground v.1.15,2013-06-25 22:50:00,
2013-06-25 18:55:00,86.4,73.2,29.90,SSW,206,2.0,7.0,65,0.00,,,0.00,Wunderground v.1.15,2013-06-25 22:55:00,
2013-06-25 19:01:00,86.3,73.1,29.90,SW,232,0.0,4.0,65,0.00,,,0.00,Wunderground v.1.15,2013-06-25 23:01:00,
2013-06-25 19:06:00,86.1,73.4,29.90,South,188,3.0,6.0,66,0.00,,,0.00,Wunderground v.1.15,2013-06-25 23:06:00,
2013-06-25 19:11:00,86.0,73.3,29.91,SW,217,2.0,3.0,66,0.00,,,0.00,Wunderground v.1.15,2013-06-25 23:11:00,
2013-06-25 19:16:00,85.9,73.2,29.91,SSW,211,2.0,5.0,66,0.00,,,0.00,Wunderground v.1.15,2013-06-25 23:16:00,
2013-06-25 19:21:00,85.6,72.9,29.91,SW,215,4.0,6.0,66,0.00,,,0.00,Wunderground v.1.15,2013-06-25 23:21:00,
2013-06-25 19:26:00,85.6,72.9,29.91,WSW,242,6.0,7.0,66,0.00,,,0.00,Wunderground v.1.15,2013-06-25 23:26:00,
2013-06-25 19:31:00,85.6,72.9,29.91,South,191,1.0,2.0,66,0.00,,,0.00,Wunderground v.1.15,2013-06-25 23:31:00,
2013-06-25 19:36:00,85.5,72.8,29.91,South,191,2.0,5.0,66,0.00,,,0.00,Wunderground v.1.15,2013-06-25 23:36:00,
2013-06-25 19:41:00,85.3,73.1,29.91,SW,215,1.0,4.0,67,0.00,,,0.00,Wunderground v.1.15,2013-06-25 23:41:00,
2013-06-25 19:46:00,85.1,72.9,29.91,SSW,213,0.0,4.0,67,0.00,,,0.00,Wunderground v.1.15,2013-06-25 23:46:00,
2013-06-25 19:51:00,84.8,73.1,29.91,SW,216,1.0,3.0,68,0.00,,,0.00,Wunderground v.1.15,2013-06-25 23:51:00,
2013-06-25 19:56:00,84.7,73.0,29.92,SSW,202,2.0,4.0,68,0.00,,,0.00,Wunderground v.1.15,2013-06-25 23:56:00,
2013-06-25 20:01:00,84.6,72.9,29.92,SW,216,1.0,5.0,68,0.00,,,0.00,Wunderground v.1.15,2013-06-26 00:01:00,
2013-06-25 20:06:00,84.5,73.2,29.92,SSW,204,2.0,5.0,69,0.00,,,0.00,Wunderground v.1.15,2013-06-26 00:06:00,
2013-06-25 20:11:00,84.2,73.3,29.92,SSW,194,0.0,2.0,70,0.00,,,0.00,Wunderground v.1.15,2013-06-26 00:11:00,
2013-06-25 20:16:00,83.8,73.0,29.92,SSW,207,0.0,5.0,70,0.00,,,0.00,Wunderground v.1.15,2013-06-26 00:16:00,
2013-06-25 20:21:00,83.6,73.2,29.92,SSW,209,0.0,7.0,71,0.00,,,0.00,Wunderground v.1.15,2013-06-26 00:21:00,
2013-06-25 20:26:00,83.6,73.2,29.92,SSW,194,1.0,7.0,71,0.00,,,0.00,Wunderground v.1.15,2013-06-26 00:26:00,
2013-06-25 20:31:00,83.6,73.2,29.92,SSW,195,0.0,3.0,71,0.00,,,0.00,Wunderground v.1.15,2013-06-26 00:31:00,
2013-06-25 20:36:00,83.2,72.8,29.92,SSW,201,2.0,4.0,71,0.00,,,0.00,Wunderground v.1.15,2013-06-26 00:36:00,
2013-06-25 20:41:00,83.0,73.0,29.93,SSW,198,0.0,5.0,72,0.00,,,0.00,Wunderground v.1.15,2013-06-26 00:41:00,
2013-06-25 20:46:00,82.9,72.9,29.93,SSW,204,1.0,5.0,72,0.00,,,0.00,Wunderground v.1.15,2013-06-26 00:46:00,
2013-06-25 20:47:00,82.8,72.8,29.93,SSW,204,1.0,5.0,72,0.00,,,0.00,Wunderground v.1.15,2013-06-26 00:47:00,
2013-06-25 20:52:00,82.6,73.1,29.93,SSW,198,1.0,4.0,73,0.00,,,0.00,Wunderground v.1.15,2013-06-26 00:52:00,
2013-06-25 20:57:00,82.4,72.9,29.93,SSW,207,0.0,4.0,73,0.00,,,0.00,Wunderground v.1.15,2013-06-26 00:57:00,
2013-06-25 21:02:00,82.3,73.2,29.94,SW,236,0.0,2.0,74,0.00,,,0.00,Wunderground v.1.15,2013-06-26 01:02:00,
2013-06-25 21:07:00,82.3,73.2,29.94,SW,225,2.0,3.0,74,0.00,,,0.00,Wunderground v.1.15,2013-06-26 01:07:00,
2013-06-25 21:12:00,82.2,73.1,29.94,SW,223,2.0,2.0,74,0.00,,,0.00,Wunderground v.1.15,2013-06-26 01:12:00,
2013-06-25 21:17:00,82.1,73.0,29.94,SW,223,0.0,3.0,74,0.00,,,0.00,Wunderground v.1.15,2013-06-26 01:17:00,
2013-06-25 21:22:00,81.9,73.2,29.95,SSW,211,2.0,3.0,75,0.00,,,0.00,Wunderground v.1.15,2013-06-26 01:22:00,
2013-06-25 21:27:00,81.9,73.2,29.95,SSW,212,1.0,3.0,75,0.00,,,0.00,Wunderground v.1.15,2013-06-26 01:27:00,
2013-06-25 21:32:00,81.7,73.4,29.95,SSW,212,0.0,1.0,76,0.00,,,0.00,Wunderground v.1.15,2013-06-26 01:32:00,
2013-06-25 21:37:00,81.5,73.2,29.95,SSW,212,0.0,2.0,76,0.00,,,0.00,Wunderground v.1.15,2013-06-26 01:37:00,
2013-06-25 21:42:00,81.3,73.0,29.95,SSW,211,1.0,2.0,76,0.00,,,0.00,Wunderground v.1.15,2013-06-26 01:42:00,
2013-06-25 21:47:00,81.2,73.3,29.95,SSW,211,1.0,2.0,77,0.00,,,0.00,Wunderground v.1.15,2013-06-26 01:47:00,
2013-06-25 21:52:00,81.1,73.2,29.95,SSW,211,1.0,2.0,77,0.00,,,0.00,Wunderground v.1.15,2013-06-26 01:52:00,
2013-06-25 21:57:00,80.9,73.0,29.94,SSW,200,1.0,3.0,77,0.00,,,0.00,Wunderground v.1.15,2013-06-26 01:57:00,
2013-06-25 22:02:00,80.8,73.3,29.94,SSW,212,1.0,5.0,78,0.00,,,0.00,Wunderground v.1.15,2013-06-26 02:02:00,
2013-06-25 22:07:00,81.0,73.1,29.94,SW,215,2.0,5.0,77,0.00,,,0.00,Wunderground v.1.15,2013-06-26 02:07:00,
2013-06-25 22:12:00,81.0,73.1,29.94,SSW,204,0.0,3.0,77,0.00,,,0.00,Wunderground v.1.15,2013-06-26 02:12:00,
2013-06-25 22:17:00,80.8,72.9,29.95,WSW,237,0.0,5.0,77,0.00,,,0.00,Wunderground v.1.15,2013-06-26 02:17:00,
2013-06-25 22:22:00,81.1,73.2,29.95,SW,215,0.0,5.0,77,0.00,,,0.00,Wunderground v.1.15,2013-06-26 02:22:00,
2013-06-25 22:27:00,81.1,73.2,29.95,SSW,210,1.0,5.0,77,0.00,,,0.00,Wunderground v.1.15,2013-06-26 02:27:00,
2013-06-25 22:32:00,80.9,73.0,29.95,SSW,200,3.0,5.0,77,0.00,,,0.00,Wunderground v.1.15,2013-06-26 02:32:00,
2013-06-25 22:37:00,81.1,72.8,29.95,SSW,206,4.0,6.0,76,0.00,,,0.00,Wunderground v.1.15,2013-06-26 02:37:00,
2013-06-25 22:42:00,81.0,73.1,29.94,SSW,197,1.0,3.0,77,0.00,,,0.00,Wunderground v.1.15,2013-06-26 02:42:00,
2013-06-25 22:47:00,80.7,73.2,29.97,NW,311,7.0,7.0,78,0.00,,,0.00,Wunderground v.1.15,2013-06-26 02:47:00,
2013-06-25 22:52:00,80.4,68.0,29.98,WNW,287,13.0,18.0,66,0.00,,,0.00,Wunderground v.1.15,2013-06-26 02:52:00,
2013-06-25 22:58:00,79.8,66.5,29.98,NW,325,8.0,21.0,64,0.00,,,0.00,Wunderground v.1.15,2013-06-26 02:58:00,
2013-06-25 23:03:00,79.1,65.9,29.98,West,273,7.0,12.0,64,0.00,,,0.00,Wunderground v.1.15,2013-06-26 03:03:00,
2013-06-25 23:08:00,78.5,65.3,29.98,West,279,7.0,14.0,64,0.00,,,0.00,Wunderground v.1.15,2013-06-26 03:08:00,
2013-06-25 23:13:00,78.0,64.8,29.98,West,281,6.0,8.0,64,0.00,,,0.00,Wunderground v.1.15,2013-06-26 03:13:00,
2013-06-25 23:18:00,76.3,66.6,29.98,NW,304,2.0,15.0,72,0.52,,,0.04,Wunderground v.1.15,2013-06-26 03:18:00,
2013-06-25 23:23:00,73.2,67.0,29.97,North,7,2.0,5.0,81,0.14,,,0.05,Wunderground v.1.15,2013-06-26 03:23:00,
2013-06-25 23:28:00,71.4,66.7,29.97,SW,231,0.0,5.0,85,0.10,,,0.06,Wunderground v.1.15,2013-06-26 03:28:00,
2013-06-25 23:33:00,70.6,66.9,29.96,WNW,292,2.0,2.0,88,0.07,,,0.06,Wunderground v.1.15,2013-06-26 03:33:00,
2013-06-25 23:38:00,70.4,67.3,29.95,East,80,5.0,5.0,90,0.05,,,0.06,Wunderground v.1.15,2013-06-26 03:38:00,
2013-06-25 23:43:00,70.0,67.3,29.95,ENE,66,1.0,3.0,91,0.00,,,0.06,Wunderground v.1.15,2013-06-26 03:43:00,
2013-06-25 23:48:00,70.1,67.7,29.94,ENE,66,0.0,3.0,92,0.00,,,0.06,Wunderground v.1.15,2013-06-26 03:48:00,
2013-06-25 23:53:00,69.6,67.2,29.94,ENE,66,0.0,1.0,92,0.00,,,0.06,Wunderground v.1.15,2013-06-26 03:53:00,
2013-06-25 23:58:00,69.3,67.2,29.94,ENE,65,0.0,1.0,93,0.00,,,0.06,Wunderground v.1.15,2013-06-26 03:58:00,